Time;durP1;ratioP1;P1;durP2;ratioP2;P2;SDS_P1;SDS_P2;PMS_P1;PMS_P2;Temp;Humidity;BMP_temperature;BMP_pressure;BME280_temperature;BME280_humidity;BME280_pressure;Samples;Min_cycle;Max_cycle;Signal;HPM_P1;HPM_P2
2023/02/23 00:00:33;;;;;;;;;;;;;;;28.58;20.56;100891.75;5008819;28;1176;-16
2023/02/23 00:03:00;;;;;;;;;;;;;;;29.15;20.42;100901.13;5000053;28;1076;-16
2023/02/23 00:05:28;;;;;;;;;;;;;;;29.53;20.04;100897.31;5007809;28;1157;-16
2023/02/23 00:07:54;;;;;;;;;;;;;;;29.61;19.83;100889.06;5001138;28;1049;-16
2023/02/23 00:10:20;;;;;;;;;;;;;;;29.51;20.01;100894.78;4997568;28;1970;-16
2023/02/23 00:12:45;;;;;;;;;;;;;;;29.20;20.43;100888.69;5001732;28;1104;-15
2023/02/23 00:15:10;;;;;;;;;;;;;;;29.44;20.22;100889.34;5016398;28;896;-16
2023/02/23 00:17:36;;;;;;;;;;;;;;;29.58;19.98;100887.53;5003868;28;1124;-16
2023/02/23 00:20:06;;;;;;;;;;;;;;;28.93;20.43;100888.38;5017348;28;1071;-16
2023/02/23 00:22:32;;;;;;;;;;;;;;;28.94;20.96;100883.81;5016993;28;1193;-16
2023/02/23 00:24:58;;;;;;;;;;;;;;;29.46;20.02;100884.53;5016331;28;1105;-16
2023/02/23 00:27:24;;;;;;;;;;;;;;;29.55;19.98;100884.38;5016398;28;1045;-16
2023/02/23 00:29:49;;;;;;;;;;;;;;;29.63;20.12;100884.28;5005119;28;1914;-16
2023/02/23 00:32:18;;;;;;;;;;;;;;;29.62;20.13;100888.03;5009386;28;1065;-16
2023/02/23 00:34:44;;;;;;;;;;;;;;;29.52;20.32;100885.63;4996547;28;1104;-16
2023/02/23 00:37:11;;;;;;;;;;;;;;;29.70;20.16;100873.47;4997133;28;1100;-16
2023/02/23 00:39:36;;;;;;;;;;;;;;;29.26;20.40;100880.81;4997146;28;891;-16
2023/02/23 00:42:02;;;;;;;;;;;;;;;28.69;21.31;100876.91;5015684;28;1160;-16
2023/02/23 00:44:27;;;;;;;;;;;;;;;29.46;20.45;100879.09;5016414;28;1060;-16
2023/02/23 00:46:53;;;;;;;;;;;;;;;29.77;20.15;100876.25;4997638;28;1036;-16
2023/02/23 00:49:19;;;;;;;;;;;;;;;29.82;19.98;100876.47;4996636;28;1058;-16
2023/02/23 00:51:44;;;;;;;;;;;;;;;29.80;19.92;100865.00;5009691;28;1965;-16
2023/02/23 00:54:10;;;;;;;;;;;;;;;29.74;20.10;100868.50;4997535;28;1072;-16
2023/02/23 00:56:35;;;;;;;;;;;;;;;29.60;20.16;100865.69;4998321;28;1315;-16
2023/02/23 00:59:01;;;;;;;;;;;;;;;29.17;20.69;100869.28;4987401;28;1453;-16
2023/02/23 01:01:26;;;;;;;;;;;;;;;29.27;20.78;100872.50;5014131;28;1145;-17
2023/02/23 01:03:54;;;;;;;;;;;;;;;29.72;20.23;100870.56;5004877;28;837;-16
2023/02/23 01:06:20;;;;;;;;;;;;;;;30.02;19.88;100876.63;5009878;28;1526;-17
2023/02/23 01:08:49;;;;;;;;;;;;;;;30.02;19.88;100875.75;4997064;28;1085;-16
2023/02/23 01:11:19;;;;;;;;;;;;;;;29.81;19.98;100866.69;5014448;28;1903;-16
2023/02/23 01:13:46;;;;;;;;;;;;;;;29.64;20.45;100864.28;5003793;28;1226;-16
2023/02/23 01:16:12;;;;;;;;;;;;;;;30.15;19.82;100859.56;5010098;28;851;-16
2023/02/23 01:18:37;;;;;;;;;;;;;;;29.65;20.18;100848.84;5011500;28;1083;-16
2023/02/23 01:21:06;;;;;;;;;;;;;;;29.14;20.98;100850.72;5016095;28;1065;-16
2023/02/23 01:23:31;;;;;;;;;;;;;;;29.80;20.37;100849.56;5016331;28;1204;-16
2023/02/23 01:25:56;;;;;;;;;;;;;;;30.09;20.07;100849.53;5010005;28;1010;-16
2023/02/23 01:28:22;;;;;;;;;;;;;;;30.13;20.05;100849.97;4996411;28;1026;-17
2023/02/23 01:30:47;;;;;;;;;;;;;;;30.12;19.65;100851.84;4997093;28;1906;-16
2023/02/23 01:33:13;;;;;;;;;;;;;;;30.07;20.10;100854.31;5008927;28;1526;-16
2023/02/23 01:35:38;;;;;;;;;;;;;;;29.42;20.40;100847.19;4979742;28;1141;-16
2023/02/23 01:38:03;;;;;;;;;;;;;;;29.37;20.92;100842.38;4996560;28;1119;-17
2023/02/23 01:40:29;;;;;;;;;;;;;;;29.72;20.51;100838.03;5009461;28;982;-16
2023/02/23 01:42:58;;;;;;;;;;;;;;;30.01;20.12;100839.66;4997026;28;1077;-16
2023/02/23 01:45:27;;;;;;;;;;;;;;;30.01;20.00;100836.94;5000380;28;1095;-16
2023/02/23 01:48:03;;;;;;;;;;;;;;;29.88;20.37;100842.31;5012516;28;1108;-16
2023/02/23 01:50:29;;;;;;;;;;;;;;;29.91;20.42;100845.44;5001702;28;1891;-16
2023/02/23 01:52:55;;;;;;;;;;;;;;;29.65;20.46;100840.69;4988050;28;1109;-16
2023/02/23 01:55:24;;;;;;;;;;;;;;;29.12;21.03;100858.19;5000065;28;1105;-17
2023/02/23 01:57:53;;;;;;;;;;;;;;;29.62;20.63;100851.94;5006660;28;1125;-16
2023/02/23 02:00:19;;;;;;;;;;;;;;;30.05;20.54;100851.78;5002649;28;1129;-16
2023/02/23 02:02:44;;;;;;;;;;;;;;;30.11;20.14;100854.75;4986765;28;1120;-15
2023/02/23 02:05:11;;;;;;;;;;;;;;;30.01;20.30;100864.06;5008366;28;1048;-16
2023/02/23 02:07:38;;;;;;;;;;;;;;;30.06;20.32;100861.59;4989673;28;1053;-16
2023/02/23 02:12:35;;;;;;;;;;;;;;;28.37;20.06;100857.38;4983091;28;1129;-16
2023/02/23 02:15:01;;;;;;;;;;;;;;;27.77;22.14;100849.22;5008928;28;1178;-17
2023/02/23 02:17:38;;;;;;;;;;;;;;;27.60;21.78;100852.91;4998455;28;1103;-16
2023/02/23 02:20:31;;;;;;;;;;;;;;;27.72;21.59;100853.34;4990862;28;1069;-17
2023/02/23 02:23:03;;;;;;;;;;;;;;;27.89;21.05;100855.03;5007569;28;1046;-16
2023/02/23 02:25:34;;;;;;;;;;;;;;;28.57;20.58;100865.72;5016515;28;1041;-16
2023/02/23 02:28:16;;;;;;;;;;;;;;;28.91;20.24;100876.09;5008629;28;1002;-16
2023/02/23 02:31:00;;;;;;;;;;;;;;;29.05;20.00;100869.81;5018546;28;1975;-16
2023/02/23 02:33:31;;;;;;;;;;;;;;;29.21;19.81;100868.69;5018676;28;936;-16
2023/02/23 02:36:16;;;;;;;;;;;;;;;29.40;19.71;100869.06;5010542;28;1164;-16
2023/02/23 02:39:05;;;;;;;;;;;;;;;29.49;19.25;100871.63;5012149;28;1191;-15
2023/02/23 02:41:36;;;;;;;;;;;;;;;29.65;19.24;100876.78;4999041;28;1108;-16
2023/02/23 02:44:05;;;;;;;;;;;;;;;29.66;19.17;100883.06;4989810;28;1114;-17
2023/02/23 02:46:33;;;;;;;;;;;;;;;28.86;19.43;100882.09;5000790;28;1056;-16
2023/02/23 02:49:13;;;;;;;;;;;;;;;28.45;20.17;100878.06;5018549;28;1048;-16
2023/02/23 02:51:43;;;;;;;;;;;;;;;29.15;19.71;100874.03;5017185;28;1963;-16
2023/02/23 02:54:09;;;;;;;;;;;;;;;29.19;19.30;100876.19;5014711;28;1356;-16
2023/02/23 02:56:39;;;;;;;;;;;;;;;29.34;19.33;100892.34;5004842;28;1160;-16
2023/02/23 04:19:10;;;;;;;;;;;;;;;25.34;22.79;100921.41;4999815;28;1130;-18
2023/02/23 04:21:35;;;;;;;;;;;;;;;24.73;23.50;100922.38;5017153;28;1068;-18
2023/02/23 04:24:01;;;;;;;;;;;;;;;24.68;23.50;100920.19;5016454;28;1116;-17
2023/02/23 04:26:26;;;;;;;;;;;;;;;24.73;23.52;100923.25;5016902;28;1175;-17
2023/02/23 04:28:51;;;;;;;;;;;;;;;24.95;23.13;100921.00;5011180;28;1191;-18
2023/02/23 04:31:17;;;;;;;;;;;;;;;25.00;23.09;100918.66;5016786;28;1906;-17
2023/02/23 04:33:42;;;;;;;;;;;;;;;24.65;23.43;100926.75;5016260;28;1096;-17
2023/02/23 04:36:08;;;;;;;;;;;;;;;24.03;23.86;100923.19;5007224;28;1156;-18
2023/02/23 04:38:33;;;;;;;;;;;;;;;24.19;23.99;100929.72;5013053;28;1037;-18
2023/02/23 04:40:58;;;;;;;;;;;;;;;24.56;23.31;100931.25;5016661;28;850;-18
2023/02/23 04:43:24;;;;;;;;;;;;;;;24.38;23.50;100925.09;5014039;28;1088;-17
2023/02/23 04:45:49;;;;;;;;;;;;;;;24.53;23.34;100931.56;5005833;28;1053;-17
2023/02/23 04:48:14;;;;;;;;;;;;;;;24.48;23.28;100936.59;5016115;28;1104;-17
2023/02/23 04:50:39;;;;;;;;;;;;;;;24.49;23.40;100929.38;5016763;28;1961;-18
2023/02/23 04:53:05;;;;;;;;;;;;;;;24.29;23.50;100935.81;5014188;28;1285;-18
2023/02/23 04:55:31;;;;;;;;;;;;;;;24.94;22.74;100935.47;5015468;28;1212;-17
2023/02/23 04:57:58;;;;;;;;;;;;;;;24.93;22.20;100936.44;5016146;28;938;-17
2023/02/23 05:00:23;;;;;;;;;;;;;;;25.34;21.58;100932.19;5013693;28;1361;-17
2023/02/23 05:02:48;;;;;;;;;;;;;;;25.67;21.18;100940.31;5007934;28;936;-18
2023/02/23 05:05:13;;;;;;;;;;;;;;;26.03;20.33;100939.09;5000518;28;1186;-18
2023/02/23 05:07:39;;;;;;;;;;;;;;;24.73;21.83;100942.06;4985726;28;1108;-18
2023/02/23 05:10:04;;;;;;;;;;;;;;;23.84;23.08;100943.03;5015778;28;1966;-17
2023/02/23 05:12:30;;;;;;;;;;;;;;;23.51;23.38;100951.66;5016832;28;1168;-17
2023/02/23 05:14:56;;;;;;;;;;;;;;;24.17;22.62;100955.91;5015965;28;1041;-18
2023/02/23 05:17:21;;;;;;;;;;;;;;;25.57;21.27;100948.53;5015214;28;1116;-17
2023/02/23 05:19:47;;;;;;;;;;;;;;;26.41;20.18;100954.69;5018977;28;1056;-17
2023/02/23 05:22:12;;;;;;;;;;;;;;;26.26;20.73;100959.94;5020455;28;1195;-17
2023/02/23 05:24:40;;;;;;;;;;;;;;;26.33;20.62;100971.75;5002612;28;1125;-17
2023/02/23 05:27:09;;;;;;;;;;;;;;;27.17;20.29;100966.88;5019758;28;1580;-17
2023/02/23 05:29:34;;;;;;;;;;;;;;;28.10;19.42;100963.31;5019465;28;1967;-17
2023/02/23 05:31:59;;;;;;;;;;;;;;;28.55;18.86;100975.19;5019832;28;1199;-18
2023/02/23 05:34:26;;;;;;;;;;;;;;;28.68;18.73;100979.94;5020301;28;1200;-18
2023/02/23 05:36:51;;;;;;;;;;;;;;;28.76;18.64;100987.13;5019853;28;1072;-18
2023/02/23 05:39:16;;;;;;;;;;;;;;;28.86;18.73;100995.81;5019683;28;1064;-17
2023/02/23 05:41:42;;;;;;;;;;;;;;;28.96;18.72;100998.22;5019301;28;1136;-18
2023/02/23 05:44:07;;;;;;;;;;;;;;;29.18;18.52;100998.25;5020485;28;1251;-18
2023/02/23 05:46:32;;;;;;;;;;;;;;;29.24;18.67;101002.09;5020279;28;1147;-18
2023/02/23 05:48:59;;;;;;;;;;;;;;;29.21;18.70;100998.72;5019995;28;1018;-18
2023/02/23 05:51:24;;;;;;;;;;;;;;;29.18;18.78;101004.53;5019663;28;1890;-18
2023/02/23 05:53:50;;;;;;;;;;;;;;;29.14;18.90;101011.38;5019572;28;1044;-18
2023/02/23 05:56:21;;;;;;;;;;;;;;;29.08;18.83;101014.81;5019824;28;1073;-17
2023/02/23 05:58:49;;;;;;;;;;;;;;;29.20;18.91;101010.59;5019617;28;1125;-17
2023/02/23 06:01:16;;;;;;;;;;;;;;;29.16;18.79;101016.59;5006669;28;1049;-17
2023/02/23 06:03:41;;;;;;;;;;;;;;;29.25;19.02;101015.44;5019157;28;1131;-18
2023/02/23 06:06:06;;;;;;;;;;;;;;;28.48;20.05;101021.94;5019328;28;934;-18
2023/02/23 06:08:32;;;;;;;;;;;;;;;28.67;20.00;101014.28;5019687;28;1104;-18
2023/02/23 06:10:57;;;;;;;;;;;;;;;28.47;20.13;101020.28;5008361;28;1960;-18
2023/02/23 06:13:22;;;;;;;;;;;;;;;29.05;20.14;101031.44;5018683;28;1060;-17
2023/02/23 06:15:48;;;;;;;;;;;;;;;26.98;22.30;101028.38;5007764;28;1053;-18
2023/02/23 06:18:13;;;;;;;;;;;;;;;26.78;22.67;101027.94;5015238;28;1367;-17
2023/02/23 06:20:39;;;;;;;;;;;;;;;27.11;22.29;101019.72;5004110;28;1148;-18
2023/02/23 06:23:04;;;;;;;;;;;;;;;27.23;21.69;101039.09;5008311;28;1109;-19
2023/02/23 06:25:29;;;;;;;;;;;;;;;27.28;22.04;101040.44;4986333;28;1121;-18
2023/02/23 06:27:55;;;;;;;;;;;;;;;26.37;22.61;101040.53;5007435;28;1212;-18
2023/02/23 06:30:20;;;;;;;;;;;;;;;26.05;23.68;101039.50;5004744;28;1963;-18
2023/02/23 06:32:45;;;;;;;;;;;;;;;26.47;22.95;101042.19;5018804;28;1036;-17
2023/02/23 06:35:11;;;;;;;;;;;;;;;26.35;22.75;101049.78;5017062;28;1034;-17
2023/02/23 06:37:36;;;;;;;;;;;;;;;28.22;21.06;101047.53;5017613;28;998;-17
2023/02/23 06:40:02;;;;;;;;;;;;;;;28.84;20.30;101054.72;5017810;28;1045;-17
2023/02/23 06:42:27;;;;;;;;;;;;;;;29.17;19.94;101058.91;5017738;28;902;-17
2023/02/23 06:44:52;;;;;;;;;;;;;;;29.38;19.82;101060.81;5018428;28;1152;-18
2023/02/23 06:47:18;;;;;;;;;;;;;;;29.45;19.58;101069.88;5017854;28;1128;-17
2023/02/23 06:49:43;;;;;;;;;;;;;;;29.48;19.64;101079.47;5018165;28;2360;-17
2023/02/23 06:52:08;;;;;;;;;;;;;;;29.53;19.47;101073.50;5019142;28;1032;-17
2023/02/23 06:54:34;;;;;;;;;;;;;;;29.72;19.28;101071.19;5018509;28;982;-17
2023/02/23 06:56:59;;;;;;;;;;;;;;;29.81;19.17;101070.06;5018169;28;1048;-17
2023/02/23 06:59:25;;;;;;;;;;;;;;;29.66;19.49;101070.13;5017858;28;1069;-17
2023/02/23 07:01:50;;;;;;;;;;;;;;;29.75;19.35;101071.66;5018600;28;1194;-17
2023/02/23 07:04:15;;;;;;;;;;;;;;;29.80;19.18;101076.50;5018138;28;1125;-16
2023/02/23 07:06:40;;;;;;;;;;;;;;;29.76;19.19;101076.03;5016519;28;1084;-17
2023/02/23 07:09:06;;;;;;;;;;;;;;;29.71;19.55;101075.81;5018141;28;1077;-17
2023/02/23 07:11:31;;;;;;;;;;;;;;;29.90;19.11;101079.72;5017810;28;1906;-17
2023/02/23 07:14:00;;;;;;;;;;;;;;;30.02;19.09;101082.75;5018669;28;1183;-18
2023/02/23 07:16:26;;;;;;;;;;;;;;;30.01;19.05;101088.38;5018034;28;1080;-18
2023/02/23 07:18:51;;;;;;;;;;;;;;;30.05;19.01;101089.66;5017989;28;885;-18
2023/02/23 07:21:17;;;;;;;;;;;;;;;29.90;19.22;101089.72;5017564;28;1069;-17
2023/02/23 07:23:42;;;;;;;;;;;;;;;29.87;19.28;101081.97;5017726;28;1177;-17
2023/02/23 07:26:08;;;;;;;;;;;;;;;30.12;19.09;101096.00;5017461;28;1276;-17
2023/02/23 07:28:33;;;;;;;;;;;;;;;30.16;18.91;101094.56;5016924;28;1220;-17
2023/02/23 07:30:59;;;;;;;;;;;;;;;30.09;19.09;101087.41;5017206;28;1910;-17
2023/02/23 07:33:25;;;;;;;;;;;;;;;30.12;19.11;101089.72;5016194;28;1239;-18
2023/02/23 07:35:50;;;;;;;;;;;;;;;29.90;19.29;101081.59;5016515;28;1220;-17
2023/02/23 07:38:16;;;;;;;;;;;;;;;29.41;19.65;101081.28;5016165;28;1369;-18
2023/02/23 07:40:41;;;;;;;;;;;;;;;29.42;19.88;101078.38;5016836;28;1201;-18
2023/02/23 07:43:06;;;;;;;;;;;;;;;30.38;18.69;101089.13;5017053;28;1039;-18
2023/02/23 07:45:32;;;;;;;;;;;;;;;30.65;18.50;101085.75;5017675;28;1288;-18
2023/02/23 07:47:58;;;;;;;;;;;;;;;30.82;18.39;101097.19;5017456;28;1236;-18
2023/02/23 07:50:24;;;;;;;;;;;;;;;30.89;18.26;101097.22;5017001;28;1890;-18
2023/02/23 07:52:49;;;;;;;;;;;;;;;31.10;17.91;101095.41;5017956;28;1195;-18
2023/02/23 07:55:15;;;;;;;;;;;;;;;30.10;18.80;101095.34;5004020;28;935;-18
2023/02/23 07:57:40;;;;;;;;;;;;;;;29.69;19.48;101107.69;5017052;28;1052;-17
2023/02/23 08:00:05;;;;;;;;;;;;;;;29.15;20.24;101104.28;4999384;28;1420;-18
2023/02/23 08:02:31;;;;;;;;;;;;;;;29.94;19.38;101105.44;5017766;28;1097;-18
2023/02/23 08:04:57;;;;;;;;;;;;;;;29.66;19.43;101114.31;5017147;28;1026;-18
2023/02/23 08:07:23;;;;;;;;;;;;;;;28.94;20.37;101117.56;5016538;28;913;-17
2023/02/23 08:09:48;;;;;;;;;;;;;;;29.82;19.76;101115.97;5017150;28;1968;-17
2023/02/23 08:12:14;;;;;;;;;;;;;;;30.28;19.37;101116.59;5017348;28;1097;-17
2023/02/23 08:14:40;;;;;;;;;;;;;;;30.57;18.86;101118.47;5016940;28;925;-17
2023/02/23 08:17:05;;;;;;;;;;;;;;;30.92;18.74;101126.69;5017721;28;1017;-18
2023/02/23 08:19:30;;;;;;;;;;;;;;;31.25;18.14;101126.03;5016849;28;882;-17
2023/02/23 08:21:56;;;;;;;;;;;;;;;30.84;18.87;101126.84;5017407;28;1121;-17
2023/02/23 08:24:21;;;;;;;;;;;;;;;30.38;18.92;101126.31;5017067;28;1073;-17
2023/02/23 08:26:48;;;;;;;;;;;;;;;30.21;19.57;101133.88;5016961;28;1044;-18
2023/02/23 08:29:14;;;;;;;;;;;;;;;29.93;19.90;101130.88;5011011;28;1121;-17
2023/02/23 08:31:39;;;;;;;;;;;;;;;30.27;19.44;101135.78;5016262;28;1914;-17
2023/02/23 08:34:04;;;;;;;;;;;;;;;30.52;19.10;101147.06;4999250;28;1061;-17
2023/02/23 08:36:29;;;;;;;;;;;;;;;30.14;19.46;101141.91;5016972;28;1132;-17
2023/02/23 08:38:55;;;;;;;;;;;;;;;29.78;19.95;101140.94;4999343;28;1096;-17
2023/02/23 08:41:20;;;;;;;;;;;;;;;29.04;20.90;101148.94;5016185;28;1033;-17
2023/02/23 08:43:46;;;;;;;;;;;;;;;29.49;20.28;101145.38;4999277;28;1117;-17
2023/02/23 08:46:11;;;;;;;;;;;;;;;29.90;19.53;101147.53;5016572;28;1111;-17
2023/02/23 08:48:39;;;;;;;;;;;;;;;30.19;19.43;101142.19;5011034;28;1029;-17
2023/02/23 08:51:04;;;;;;;;;;;;;;;30.81;18.73;101147.13;5009329;28;1957;-18
2023/02/23 08:53:29;;;;;;;;;;;;;;;31.22;18.31;101148.16;5015986;28;1231;-17
2023/02/23 08:55:58;;;;;;;;;;;;;;;30.58;18.85;101153.56;5016771;28;1001;-17
2023/02/23 08:58:24;;;;;;;;;;;;;;;30.31;19.08;101151.50;5016152;28;1076;-17
2023/02/23 09:00:49;;;;;;;;;;;;;;;30.09;19.65;101161.50;5016450;28;1085;-17
2023/02/23 09:03:14;;;;;;;;;;;;;;;30.43;19.34;101159.94;5015977;28;1068;-17
2023/02/23 09:05:40;;;;;;;;;;;;;;;30.99;18.71;101162.88;5016047;28;1068;-17
2023/02/23 09:08:05;;;;;;;;;;;;;;;31.01;18.75;101170.84;5015807;28;1083;-18
2023/02/23 09:10:32;;;;;;;;;;;;;;;31.26;18.47;101179.31;5015873;28;1949;-18
2023/02/23 09:12:57;;;;;;;;;;;;;;;30.89;18.55;101174.13;5015613;28;1044;-18
2023/02/23 09:15:22;;;;;;;;;;;;;;;30.73;18.57;101171.66;5016605;28;1148;-18
2023/02/23 09:17:48;;;;;;;;;;;;;;;30.20;19.55;101181.88;5016208;28;1052;-18
2023/02/23 09:20:14;;;;;;;;;;;;;;;30.73;18.97;101175.22;5016184;28;1033;-18
2023/02/23 09:22:49;;;;;;;;;;;;;;;30.73;19.06;101177.09;5016323;28;1100;-18
2023/02/23 09:25:18;;;;;;;;;;;;;;;30.45;18.84;101180.66;5016350;28;1195;-17
2023/02/23 09:27:46;;;;;;;;;;;;;;;30.77;19.07;101190.09;5016290;28;1121;-17
2023/02/23 09:30:15;;;;;;;;;;;;;;;29.25;20.75;101191.53;5016116;28;1961;-17
2023/02/23 09:32:40;;;;;;;;;;;;;;;29.77;20.14;101188.91;5015207;28;1126;-18
2023/02/23 09:35:06;;;;;;;;;;;;;;;30.09;19.99;101193.19;4998506;28;1162;-18
2023/02/23 09:37:31;;;;;;;;;;;;;;;30.86;19.13;101196.25;5016604;28;1131;-18
2023/02/23 09:39:56;;;;;;;;;;;;;;;30.95;18.84;101201.53;5016100;28;1187;-18
2023/02/23 09:42:27;;;;;;;;;;;;;;;30.64;18.78;101188.13;5015745;28;1073;-18
2023/02/23 09:45:01;;;;;;;;;;;;;;;30.21;19.47;101190.84;4998439;28;1072;-18
2023/02/23 09:47:28;;;;;;;;;;;;;;;30.83;19.03;101198.50;5015809;28;1030;-17
2023/02/23 09:49:53;;;;;;;;;;;;;;;30.92;18.77;101197.31;5016480;28;1902;-18
2023/02/23 09:52:20;;;;;;;;;;;;;;;30.77;18.94;101194.66;5015806;28;1207;-17
2023/02/23 09:54:45;;;;;;;;;;;;;;;30.38;19.02;101199.59;4998365;28;1157;-18
2023/02/23 09:57:12;;;;;;;;;;;;;;;29.31;20.49;101200.81;5003307;28;998;-17
2023/02/23 09:59:38;;;;;;;;;;;;;;;29.74;19.84;101210.13;4998671;28;1177;-17
2023/02/23 10:02:04;;;;;;;;;;;;;;;30.15;19.34;101203.28;4998325;28;1192;-18
2023/02/23 10:04:32;;;;;;;;;;;;;;;30.59;18.91;101206.88;5015623;28;1132;-17
2023/02/23 10:06:59;;;;;;;;;;;;;;;30.70;18.52;101207.38;5009946;28;1099;-18
2023/02/23 10:09:43;;;;;;;;;;;;;;;30.13;18.74;101208.91;5016142;28;1133;-17
2023/02/23 10:12:23;;;;;;;;;;;;;;;29.43;19.76;101202.00;5019500;28;1976;-17
2023/02/23 10:15:07;;;;;;;;;;;;;;;30.38;18.69;101199.59;5018957;28;1125;-17
2023/02/23 10:17:38;;;;;;;;;;;;;;;30.79;18.42;101206.19;5018975;28;1119;-18
2023/02/23 10:20:08;;;;;;;;;;;;;;;30.79;18.03;101214.31;5001226;28;959;-17
2023/02/23 10:22:33;;;;;;;;;;;;;;;30.65;18.48;101211.50;5001418;28;1124;-18
2023/02/23 10:25:03;;;;;;;;;;;;;;;31.05;17.85;101212.84;5001824;28;1076;-17
2023/02/23 10:27:36;;;;;;;;;;;;;;;30.21;18.55;101204.41;5001912;28;1077;-17
2023/02/23 10:30:03;;;;;;;;;;;;;;;29.28;19.54;101209.31;5001305;28;1914;-18
2023/02/23 10:32:38;;;;;;;;;;;;;;;29.76;19.19;101202.66;5001498;28;931;-17
2023/02/23 10:35:14;;;;;;;;;;;;;;;30.61;18.36;101202.09;5018685;28;1169;-17
2023/02/23 10:37:39;;;;;;;;;;;;;;;30.92;17.85;101205.47;5018846;28;1080;-17
2023/02/23 10:40:05;;;;;;;;;;;;;;;31.10;17.71;101201.38;5016910;28;1170;-18
2023/02/23 10:42:30;;;;;;;;;;;;;;;31.15;17.42;101202.47;5016390;28;1172;-17
2023/02/23 10:44:56;;;;;;;;;;;;;;;29.56;19.16;101193.19;5013954;28;1135;-18
2023/02/23 10:47:23;;;;;;;;;;;;;;;28.17;20.72;101198.72;5019045;28;1136;-17
2023/02/23 10:49:49;;;;;;;;;;;;;;;29.15;19.67;101201.81;5001313;28;1963;-17
2023/02/23 10:52:16;;;;;;;;;;;;;;;29.87;19.17;101204.03;5018437;28;1187;-18
2023/02/23 10:54:43;;;;;;;;;;;;;;;30.60;18.49;101207.69;5000172;28;1109;-18
2023/02/23 10:57:08;;;;;;;;;;;;;;;30.82;18.20;101203.09;5018690;28;1071;-17
2023/02/23 10:59:34;;;;;;;;;;;;;;;31.16;18.04;101212.28;5017984;28;1101;-17
2023/02/23 11:02:03;;;;;;;;;;;;;;;31.34;17.77;101213.66;5000470;28;1284;-18
2023/02/23 11:04:29;;;;;;;;;;;;;;;29.90;18.98;101209.91;4999474;28;1374;-18
2023/02/23 11:07:21;;;;;;;;;;;;;;;29.31;19.80;101209.75;5016016;28;1097;-18
2023/02/23 11:09:46;;;;;;;;;;;;;;;30.06;19.26;101203.41;5013122;28;1969;-18
2023/02/23 11:12:20;;;;;;;;;;;;;;;30.74;18.55;101205.94;5014347;28;976;-17
2023/02/23 11:14:46;;;;;;;;;;;;;;;31.01;18.41;101206.16;5017355;28;1026;-17
2023/02/23 11:17:22;;;;;;;;;;;;;;;31.03;18.28;101206.81;5017721;28;1063;-18
2023/02/23 11:19:48;;;;;;;;;;;;;;;31.22;18.23;101218.81;4999780;28;1007;-18
2023/02/23 11:22:21;;;;;;;;;;;;;;;30.06;19.09;101210.72;5000478;28;1041;-17
2023/02/23 11:24:46;;;;;;;;;;;;;;;29.40;19.71;101213.22;5000832;28;1236;-18
2023/02/23 11:27:22;;;;;;;;;;;;;;;29.72;19.65;101204.06;5000498;28;1037;-17
2023/02/23 11:29:47;;;;;;;;;;;;;;;30.73;18.66;101205.06;5017466;28;1184;-18
2023/02/23 11:32:14;;;;;;;;;;;;;;;30.86;18.60;101209.84;5000201;28;953;-18
2023/02/23 11:34:40;;;;;;;;;;;;;;;31.03;18.20;101213.06;5017852;28;1128;-18
2023/02/23 11:37:25;;;;;;;;;;;;;;;31.23;18.00;101216.97;4999797;28;1133;-18
2023/02/23 11:39:57;;;;;;;;;;;;;;;30.03;18.85;101211.09;5016565;28;1538;-17
2023/02/23 11:42:24;;;;;;;;;;;;;;;29.41;19.93;101208.66;5017830;28;1183;-17
2023/02/23 11:45:09;;;;;;;;;;;;;;;30.06;19.30;101214.25;4999637;28;1009;-18
2023/02/23 11:47:38;;;;;;;;;;;;;;;30.87;18.32;101224.22;4999591;28;1632;-17
2023/02/23 11:50:04;;;;;;;;;;;;;;;30.63;18.78;101215.47;5017412;28;1914;-17
2023/02/23 11:52:30;;;;;;;;;;;;;;;30.89;18.47;101223.00;5017051;28;1251;-18
2023/02/23 11:54:59;;;;;;;;;;;;;;;31.13;18.32;101218.13;4999000;28;1292;-18
2023/02/23 11:57:32;;;;;;;;;;;;;;;29.88;19.19;101222.81;5015738;28;1330;-18
2023/02/23 11:59:58;;;;;;;;;;;;;;;29.41;19.93;101224.91;4999737;28;1201;-17
2023/02/23 12:02:25;;;;;;;;;;;;;;;29.96;19.42;101223.75;4999351;28;1225;-18
2023/02/23 12:05:01;;;;;;;;;;;;;;;30.63;18.76;101216.28;5016552;28;1236;-18
2023/02/23 12:07:27;;;;;;;;;;;;;;;31.02;18.47;101224.13;4998370;28;1221;-17
2023/02/23 12:10:11;;;;;;;;;;;;;;;31.22;18.19;101221.53;5017236;28;1910;-18
2023/02/23 12:13:03;;;;;;;;;;;;;;;31.33;18.08;101219.31;5016673;28;1025;-18
2023/02/23 12:15:34;;;;;;;;;;;;;;;29.73;19.48;101213.88;5012066;28;1093;-18
2023/02/23 12:18:02;;;;;;;;;;;;;;;29.77;19.72;101209.75;5016650;28;1120;-17
2023/02/23 12:20:31;;;;;;;;;;;;;;;30.60;18.83;101222.09;4999489;28;1152;-18
2023/02/23 12:22:58;;;;;;;;;;;;;;;30.90;18.71;101221.13;5006410;28;1077;-17
2023/02/23 12:25:38;;;;;;;;;;;;;;;31.07;18.22;101232.53;5014353;28;1093;-18
2023/02/23 12:28:05;;;;;;;;;;;;;;;30.47;19.10;101227.41;4998625;28;1259;-17
2023/02/23 12:30:41;;;;;;;;;;;;;;;30.87;18.55;101229.66;5016317;28;1965;-17
2023/02/23 12:33:14;;;;;;;;;;;;;;;29.51;19.67;101220.03;4999036;28;1168;-17
2023/02/23 12:35:54;;;;;;;;;;;;;;;29.98;19.43;101230.63;4998956;28;1430;-17
2023/02/23 12:38:19;;;;;;;;;;;;;;;30.79;18.54;101234.19;4998971;28;1180;-17
2023/02/23 12:40:44;;;;;;;;;;;;;;;30.92;18.42;101232.63;5016851;28;1080;-19
2023/02/23 12:43:17;;;;;;;;;;;;;;;31.15;18.30;101236.97;4999158;28;1045;-17
2023/02/23 12:45:44;;;;;;;;;;;;;;;30.61;18.75;101241.97;5009781;28;1044;-17
2023/02/23 12:48:26;;;;;;;;;;;;;;;30.92;18.26;101240.78;5016402;28;1092;-17
2023/02/23 12:50:52;;;;;;;;;;;;;;;29.50;19.43;101240.03;5016052;28;1910;-17
2023/02/23 12:53:25;;;;;;;;;;;;;;;29.67;19.63;101250.72;4999436;28;1152;-17
2023/02/23 12:55:50;;;;;;;;;;;;;;;30.27;18.80;101244.34;5016125;28;1156;-17
2023/02/23 12:58:23;;;;;;;;;;;;;;;30.55;18.80;101241.69;5015891;28;1156;-17
2023/02/23 13:00:50;;;;;;;;;;;;;;;30.50;18.70;101254.16;5016493;28;1033;-18
2023/02/23 13:03:22;;;;;;;;;;;;;;;30.95;18.23;101243.09;4999250;28;1121;-17
2023/02/23 13:05:50;;;;;;;;;;;;;;;30.92;18.42;101247.06;5015825;28;1132;-17
2023/02/23 13:08:20;;;;;;;;;;;;;;;29.66;19.17;101246.34;4999068;28;1207;-17
2023/02/23 13:10:52;;;;;;;;;;;;;;;29.10;20.18;101237.59;5015787;28;1969;-17
2023/02/23 13:13:24;;;;;;;;;;;;;;;29.62;19.69;101247.72;5016317;28;1164;-18
2023/02/23 13:15:52;;;;;;;;;;;;;;;30.48;18.78;101251.66;5016358;28;1263;-18
2023/02/23 13:18:23;;;;;;;;;;;;;;;30.62;18.63;101251.78;5016202;28;1049;-18
2023/02/23 13:20:58;;;;;;;;;;;;;;;30.85;18.24;101251.59;4998074;28;1140;-18
2023/02/23 13:23:49;;;;;;;;;;;;;;;30.92;18.32;101252.50;4999164;28;1117;-17
2023/02/23 13:26:28;;;;;;;;;;;;;;;29.98;18.89;101252.34;4978306;28;1107;-18
2023/02/23 13:29:02;;;;;;;;;;;;;;;29.18;19.58;101256.47;4998446;28;1101;-18
2023/02/23 13:31:32;;;;;;;;;;;;;;;29.74;19.53;101253.50;5016307;28;1965;-18
2023/02/23 13:33:57;;;;;;;;;;;;;;;30.41;18.89;101246.16;5016082;28;934;-18
2023/02/23 13:36:23;;;;;;;;;;;;;;;30.74;18.56;101257.53;4998116;28;1510;-17
2023/02/23 13:38:48;;;;;;;;;;;;;;;30.92;18.31;101257.94;5016160;28;1072;-17
2023/02/23 13:41:16;;;;;;;;;;;;;;;30.94;18.15;101254.16;5018919;28;1065;-18
2023/02/23 13:43:51;;;;;;;;;;;;;;;31.05;18.12;101269.91;5019146;28;1014;-18
2023/02/23 13:46:39;;;;;;;;;;;;;;;29.46;19.60;101266.66;5002062;28;1127;-17
2023/02/23 13:49:27;;;;;;;;;;;;;;;29.91;19.38;101270.44;5006632;28;1340;-18
2023/02/23 13:51:56;;;;;;;;;;;;;;;30.34;18.99;101283.25;5019213;28;1906;-17
2023/02/23 13:54:30;;;;;;;;;;;;;;;30.42;18.86;101276.84;5002051;28;1148;-18
2023/02/23 13:56:56;;;;;;;;;;;;;;;30.35;18.86;101275.94;5010252;28;1176;-18
2023/02/23 13:59:22;;;;;;;;;;;;;;;30.23;19.04;101270.19;5019268;28;1510;-18
2023/02/23 14:01:52;;;;;;;;;;;;;;;30.33;18.99;101273.41;5019459;28;1053;-18
2023/02/23 14:04:20;;;;;;;;;;;;;;;28.05;21.03;101275.84;5019340;28;1193;-18
2023/02/23 14:06:52;;;;;;;;;;;;;;;28.14;21.57;101279.38;5019390;28;1052;-18
2023/02/23 14:09:20;;;;;;;;;;;;;;;28.82;20.44;101278.78;5019141;28;1028;-17
2023/02/23 14:11:46;;;;;;;;;;;;;;;29.47;20.05;101286.50;5001717;28;1906;-17
2023/02/23 14:14:15;;;;;;;;;;;;;;;30.03;19.38;101289.78;5019008;28;1068;-17